sensor_id;sensor_type;location;lat;lon;timestamp;pressure;altitude;pressure_sealevel;temperature;humidity
40612;BME280;26317;44.894;20.286;2023-09-18T00:00:35;100989.22;;;21.95;76.38
40612;BME280;26317;44.894;20.286;2023-09-18T00:03:20;100989.22;;;21.95;76.66
40612;BME280;26317;44.894;20.286;2023-09-18T00:06:02;100986.13;;;21.97;76.52
40612;BME280;26317;44.894;20.286;2023-09-18T00:08:38;100990.34;;;21.94;77.07
40612;BME280;26317;44.894;20.286;2023-09-18T00:11:26;100989.22;;;21.95;76.64
40612;BME280;26317;44.894;20.286;2023-09-18T00:14:04;100988.41;;;21.95;76.63
40612;BME280;26317;44.894;20.286;2023-09-18T00:16:44;100981.66;;;21.92;76.55
40612;BME280;26317;44.894;20.286;2023-09-18T00:19:27;100984.88;;;21.94;76.48
40612;BME280;26317;44.894;20.286;2023-09-18T00:22:19;100984.41;;;21.92;77.26
40612;BME280;26317;44.894;20.286;2023-09-18T00:24:55;100981.19;;;21.90;76.69
40612;BME280;26317;44.894;20.286;2023-09-18T00:27:41;100978.59;;;21.94;76.88
40612;BME280;26317;44.894;20.286;2023-09-18T00:30:21;100971.53;;;21.93;76.59
40612;BME280;26317;44.894;20.286;2023-09-18T00:32:55;100975.06;;;21.93;76.75
40612;BME280;26317;44.894;20.286;2023-09-18T00:35:34;100958.84;;;21.88;76.58
40612;BME280;26317;44.894;20.286;2023-09-18T00:38:24;100964.47;;;21.92;76.29
40612;BME280;26317;44.894;20.286;2023-09-18T00:41:06;100964.63;;;21.95;76.13
40612;BME280;26317;44.894;20.286;2023-09-18T00:43:43;100967.34;;;21.95;76.22
40612;BME280;26317;44.894;20.286;2023-09-18T00:46:27;100970.09;;;21.95;76.06
40612;BME280;26317;44.894;20.286;2023-09-18T00:49:02;100964.28;;;21.97;76.40
40612;BME280;26317;44.894;20.286;2023-09-18T00:51:33;100962.34;;;21.97;76.38
40612;BME280;26317;44.894;20.286;2023-09-18T00:54:15;100959.50;;;21.94;76.30
40612;BME280;26317;44.894;20.286;2023-09-18T00:56:57;100964.16;;;21.93;76.24
40612;BME280;26317;44.894;20.286;2023-09-18T00:59:27;100954.81;;;21.94;76.40
40612;BME280;26317;44.894;20.286;2023-09-18T01:02:03;100963.19;;;21.89;76.82
40612;BME280;26317;44.894;20.286;2023-09-18T01:04:52;100969.34;;;21.86;76.74
40612;BME280;26317;44.894;20.286;2023-09-18T01:07:29;100965.47;;;21.87;77.21
40612;BME280;26317;44.894;20.286;2023-09-18T01:10:16;100958.53;;;21.90;77.23
40612;BME280;26317;44.894;20.286;2023-09-18T01:12:56;100944.47;;;21.79;76.88
40612;BME280;26317;44.894;20.286;2023-09-18T01:15:51;100961.59;;;21.88;77.02
40612;BME280;26317;44.894;20.286;2023-09-18T01:18:30;100958.63;;;21.81;77.42
40612;BME280;26317;44.894;20.286;2023-09-18T01:21:09;100962.28;;;21.85;77.24
40612;BME280;26317;44.894;20.286;2023-09-18T01:23:53;100956.94;;;21.89;77.42
40612;BME280;26317;44.894;20.286;2023-09-18T01:26:27;100964.81;;;21.90;76.77
40612;BME280;26317;44.894;20.286;2023-09-18T01:29:00;100959.66;;;21.89;76.95
40612;BME280;26317;44.894;20.286;2023-09-18T01:31:42;100966.25;;;21.88;77.50
40612;BME280;26317;44.894;20.286;2023-09-18T01:34:28;100959.41;;;21.82;77.42
40612;BME280;26317;44.894;20.286;2023-09-18T01:37:07;100966.25;;;21.88;76.98
40612;BME280;26317;44.894;20.286;2023-09-18T01:39:51;100960.22;;;21.82;77.27
40612;BME280;26317;44.894;20.286;2023-09-18T01:42:32;100957.47;;;21.82;77.38
40612;BME280;26317;44.894;20.286;2023-09-18T01:45:16;100969.06;;;21.79;77.77
40612;BME280;26317;44.894;20.286;2023-09-18T01:47:55;100962.47;;;21.80;77.86
40612;BME280;26317;44.894;20.286;2023-09-18T01:50:33;100970.34;;;21.82;77.44
40612;BME280;26317;44.894;20.286;2023-09-18T01:53:12;100970.34;;;21.82;77.77
40612;BME280;26317;44.894;20.286;2023-09-18T01:55:57;100967.94;;;21.80;77.71
40612;BME280;26317;44.894;20.286;2023-09-18T01:58:30;100962.47;;;21.80;77.58
40612;BME280;26317;44.894;20.286;2023-09-18T02:01:14;100968.72;;;21.81;77.69
40612;BME280;26317;44.894;20.286;2023-09-18T02:03:53;100962.81;;;21.79;78.01
40612;BME280;26317;44.894;20.286;2023-09-18T02:06:54;100965.88;;;21.77;77.81
40612;BME280;26317;44.894;20.286;2023-09-18T02:09:33;100969.41;;;21.78;77.77
40612;BME280;26317;44.894;20.286;2023-09-18T02:12:10;100961.22;;;21.78;77.86
40612;BME280;26317;44.894;20.286;2023-09-18T02:14:48;100959.94;;;21.75;78.30
40612;BME280;26317;44.894;20.286;2023-09-18T02:17:42;100955.16;;;21.72;78.61
40612;BME280;26317;44.894;20.286;2023-09-18T02:20:15;100958.69;;;21.73;78.75
40612;BME280;26317;44.894;20.286;2023-09-18T02:22:52;100962.75;;;21.67;78.46
40612;BME280;26317;44.894;20.286;2023-09-18T02:25:29;100956.50;;;21.66;79.19
40612;BME280;26317;44.894;20.286;2023-09-18T02:28:05;100944.88;;;21.57;79.42
40612;BME280;26317;44.894;20.286;2023-09-18T02:30:38;100953.50;;;21.59;79.60
40612;BME280;26317;44.894;20.286;2023-09-18T02:33:18;100949.19;;;21.58;79.01
40612;BME280;26317;44.894;20.286;2023-09-18T02:35:53;100955.50;;;21.50;79.64
40612;BME280;26317;44.894;20.286;2023-09-18T02:38:26;100956.47;;;21.54;79.29
40612;BME280;26317;44.894;20.286;2023-09-18T02:41:10;100953.94;;;21.49;79.47
40612;BME280;26317;44.894;20.286;2023-09-18T02:43:57;100961.63;;;21.47;79.89
40612;BME280;26317;44.894;20.286;2023-09-18T02:46:36;100943.88;;;21.41;79.86
40612;BME280;26317;44.894;20.286;2023-09-18T02:49:11;100951.59;;;21.39;79.84
40612;BME280;26317;44.894;20.286;2023-09-18T02:51:55;100966.16;;;21.43;79.97
40612;BME280;26317;44.894;20.286;2023-09-18T02:54:33;100969.25;;;21.41;80.59
40612;BME280;26317;44.894;20.286;2023-09-18T02:57:26;100965.09;;;21.35;80.21
40612;BME280;26317;44.894;20.286;2023-09-18T03:00:07;100976.81;;;21.36;79.99
40612;BME280;26317;44.894;20.286;2023-09-18T03:02:52;100969.31;;;21.33;79.96
40612;BME280;26317;44.894;20.286;2023-09-18T03:05:31;100978.25;;;21.33;80.12
40612;BME280;26317;44.894;20.286;2023-09-18T03:08:13;100973.97;;;21.32;80.16
40612;BME280;26317;44.894;20.286;2023-09-18T03:10:50;100965.63;;;21.29;80.40
40612;BME280;26317;44.894;20.286;2023-09-18T03:13:31;100955.50;;;21.29;80.61
40612;BME280;26317;44.894;20.286;2023-09-18T03:16:22;100967.88;;;21.27;80.96
40612;BME280;26317;44.894;20.286;2023-09-18T03:19:01;100966.94;;;21.23;81.32
40612;BME280;26317;44.894;20.286;2023-09-18T03:21:37;100950.78;;;21.18;81.00
40612;BME280;26317;44.894;20.286;2023-09-18T03:24:21;100968.88;;;21.22;81.86
40612;BME280;26317;44.894;20.286;2023-09-18T03:26:54;100965.34;;;21.22;81.58
40612;BME280;26317;44.894;20.286;2023-09-18T03:29:25;100962.16;;;21.20;81.63
40612;BME280;26317;44.894;20.286;2023-09-18T03:32:17;100967.81;;;21.15;82.08
40612;BME280;26317;44.894;20.286;2023-09-18T03:34:57;100966.69;;;21.16;82.32
40612;BME280;26317;44.894;20.286;2023-09-18T03:37:29;100959.75;;;21.18;82.06
40612;BME280;26317;44.894;20.286;2023-09-18T03:40:09;100965.22;;;21.18;82.00
40612;BME280;26317;44.894;20.286;2023-09-18T03:42:45;100915.19;;;20.85;81.98
40612;BME280;26317;44.894;20.286;2023-09-18T03:45:20;100951.16;;;21.07;82.10
40612;BME280;26317;44.894;20.286;2023-09-18T03:48:05;100951.59;;;21.09;82.08
40612;BME280;26317;44.894;20.286;2023-09-18T03:50:53;100954.69;;;21.08;82.09
40612;BME280;26317;44.894;20.286;2023-09-18T03:53:36;100952.28;;;21.06;82.53
40612;BME280;26317;44.894;20.286;2023-09-18T03:56:08;100947.47;;;21.03;82.78
40612;BME280;26317;44.894;20.286;2023-09-18T03:58:51;100953.75;;;21.04;83.12
40612;BME280;26317;44.894;20.286;2023-09-18T04:01:30;100953.94;;;20.99;83.32
40612;BME280;26317;44.894;20.286;2023-09-18T04:04:15;100952.63;;;20.96;83.82
40612;BME280;26317;44.894;20.286;2023-09-18T04:06:55;100949.78;;;20.93;83.85
40612;BME280;26317;44.894;20.286;2023-09-18T04:09:40;100959.88;;;20.92;83.81
40612;BME280;26317;44.894;20.286;2023-09-18T04:12:16;100964.22;;;20.93;83.56
40612;BME280;26317;44.894;20.286;2023-09-18T04:14:56;100949.78;;;20.93;84.20
40612;BME280;26317;44.894;20.286;2023-09-18T04:17:33;100947.41;;;20.91;84.35
40612;BME280;26317;44.894;20.286;2023-09-18T04:20:12;100950.13;;;20.91;84.21
40612;BME280;26317;44.894;20.286;2023-09-18T04:22:47;100945.78;;;20.90;83.90
40612;BME280;26317;44.894;20.286;2023-09-18T04:25:34;100951.25;;;20.90;83.94
40612;BME280;26317;44.894;20.286;2023-09-18T04:28:11;100947.72;;;20.90;84.11
40612;BME280;26317;44.894;20.286;2023-09-18T04:30:49;100929.47;;;20.82;84.16
40612;BME280;26317;44.894;20.286;2023-09-18T04:33:34;100940.34;;;20.90;84.40
40612;BME280;26317;44.894;20.286;2023-09-18T04:36:31;100926.47;;;20.75;84.98
40612;BME280;26317;44.894;20.286;2023-09-18T04:39:08;100947.22;;;20.88;84.88
40612;BME280;26317;44.894;20.286;2023-09-18T04:41:42;100949.19;;;20.87;85.36
40612;BME280;26317;44.894;20.286;2023-09-18T04:44:26;100945.16;;;20.85;85.33
40612;BME280;26317;44.894;20.286;2023-09-18T04:47:04;100941.31;;;20.86;86.09
40612;BME280;26317;44.894;20.286;2023-09-18T04:49:39;100924.69;;;20.79;85.68
40612;BME280;26317;44.894;20.286;2023-09-18T04:52:23;100935.34;;;20.92;85.67
40612;BME280;26317;44.894;20.286;2023-09-18T04:55:09;100936.88;;;21.02;85.13
40612;BME280;26317;44.894;20.286;2023-09-18T04:57:52;100942.03;;;21.03;85.49
40612;BME280;26317;44.894;20.286;2023-09-18T05:00:36;100924.38;;;21.01;85.54
40612;BME280;26317;44.894;20.286;2023-09-18T05:03:13;100925.44;;;21.08;85.00
40612;BME280;26317;44.894;20.286;2023-09-18T05:05:49;100934.28;;;21.14;85.21
40612;BME280;26317;44.894;20.286;2023-09-18T05:08:32;100915.69;;;21.07;85.00
40612;BME280;26317;44.894;20.286;2023-09-18T05:11:11;100939.34;;;21.24;85.20
40612;BME280;26317;44.894;20.286;2023-09-18T05:13:52;100931.28;;;21.28;84.92
40612;BME280;26317;44.894;20.286;2023-09-18T05:16:26;100928.22;;;21.29;84.78
40612;BME280;26317;44.894;20.286;2023-09-18T05:19:08;100937.00;;;21.35;85.04
40612;BME280;26317;44.894;20.286;2023-09-18T05:21:50;100929.94;;;21.34;84.98
40612;BME280;26317;44.894;20.286;2023-09-18T05:24:39;100925.47;;;21.29;85.13
40612;BME280;26317;44.894;20.286;2023-09-18T05:27:16;100930.41;;;21.36;85.05
40612;BME280;26317;44.894;20.286;2023-09-18T05:30:00;100926.88;;;21.35;85.22
40612;BME280;26317;44.894;20.286;2023-09-18T05:32:50;100915.19;;;21.35;85.58
40612;BME280;26317;44.894;20.286;2023-09-18T05:35:27;100918.75;;;21.47;85.44
40612;BME280;26317;44.894;20.286;2023-09-18T05:38:03;100920.25;;;21.45;84.79
40612;BME280;26317;44.894;20.286;2023-09-18T05:40:54;100920.50;;;21.52;85.01
40612;BME280;26317;44.894;20.286;2023-09-18T05:43:31;100923.03;;;21.57;85.19
40612;BME280;26317;44.894;20.286;2023-09-18T05:46:07;100928.28;;;21.62;84.83
40612;BME280;26317;44.894;20.286;2023-09-18T05:48:50;100935.25;;;21.72;84.56
40612;BME280;26317;44.894;20.286;2023-09-18T05:51:34;100933.44;;;21.76;84.08
40612;BME280;26317;44.894;20.286;2023-09-18T05:54:09;100936.28;;;21.79;83.07
40612;BME280;26317;44.894;20.286;2023-09-18T05:56:50;100925.16;;;21.84;82.75
40612;BME280;26317;44.894;20.286;2023-09-18T05:59:25;100930.56;;;21.93;82.93
40612;BME280;26317;44.894;20.286;2023-09-18T06:02:08;100929.88;;;21.96;82.41
40612;BME280;26317;44.894;20.286;2023-09-18T06:04:47;100932.16;;;21.94;80.88
40612;BME280;26317;44.894;20.286;2023-09-18T06:07:19;100947.78;;;22.06;79.99
40612;BME280;26317;44.894;20.286;2023-09-18T06:09:55;100950.88;;;22.04;78.68
40612;BME280;26317;44.894;20.286;2023-09-18T06:12:33;100952.34;;;22.01;78.70
40612;BME280;26317;44.894;20.286;2023-09-18T06:15:16;100950.06;;;22.04;78.79
40612;BME280;26317;44.894;20.286;2023-09-18T06:18:04;100952.38;;;22.14;78.25
40612;BME280;26317;44.894;20.286;2023-09-18T06:20:39;100939.19;;;22.16;77.30
40612;BME280;26317;44.894;20.286;2023-09-18T06:23:15;100944.75;;;22.19;77.50
40612;BME280;26317;44.894;20.286;2023-09-18T06:25:54;100945.78;;;22.27;77.77
40612;BME280;26317;44.894;20.286;2023-09-18T06:28:36;100945.59;;;22.32;76.53
40612;BME280;26317;44.894;20.286;2023-09-18T06:31:15;100941.34;;;22.34;76.19
40612;BME280;26317;44.894;20.286;2023-09-18T06:33:49;100932.47;;;22.25;76.26
40612;BME280;26317;44.894;20.286;2023-09-18T06:36:36;100938.53;;;22.43;76.38
40612;BME280;26317;44.894;20.286;2023-09-18T06:39:07;100936.47;;;22.52;76.12
40612;BME280;26317;44.894;20.286;2023-09-18T06:41:48;100942.19;;;22.59;75.23
40612;BME280;26317;44.894;20.286;2023-09-18T06:44:29;100936.81;;;22.63;74.69
40612;BME280;26317;44.894;20.286;2023-09-18T06:47:12;100933.34;;;22.74;74.15
40612;BME280;26317;44.894;20.286;2023-09-18T06:49:50;100925.47;;;22.85;73.39
40612;BME280;26317;44.894;20.286;2023-09-18T06:52:44;100933.09;;;22.91;72.47
40612;BME280;26317;44.894;20.286;2023-09-18T06:55:19;100938.78;;;22.99;72.85
40612;BME280;26317;44.894;20.286;2023-09-18T06:58:05;100934.91;;;23.00;72.57
40612;BME280;26317;44.894;20.286;2023-09-18T07:00:42;100942.19;;;23.08;71.55
40612;BME280;26317;44.894;20.286;2023-09-18T07:03:21;100945.72;;;23.20;71.14
40612;BME280;26317;44.894;20.286;2023-09-18T07:06:05;100952.63;;;23.30;70.50
40612;BME280;26317;44.894;20.286;2023-09-18T07:08:42;100941.81;;;23.33;70.23
40612;BME280;26317;44.894;20.286;2023-09-18T07:11:20;100939.97;;;23.37;70.14
40612;BME280;26317;44.894;20.286;2023-09-18T07:14:03;100940.53;;;23.43;69.71
40612;BME280;26317;44.894;20.286;2023-09-18T07:16:47;100940.75;;;23.50;69.69
40612;BME280;26317;44.894;20.286;2023-09-18T07:19:23;100949.88;;;23.54;69.49
40612;BME280;26317;44.894;20.286;2023-09-18T07:22:04;100950.41;;;23.60;69.28
40612;BME280;26317;44.894;20.286;2023-09-18T07:24:42;100953.38;;;23.67;68.52
40612;BME280;26317;44.894;20.286;2023-09-18T07:27:17;100955.25;;;23.78;68.62
40612;BME280;26317;44.894;20.286;2023-09-18T07:29:57;100957.75;;;23.83;67.76
40612;BME280;26317;44.894;20.286;2023-09-18T07:32:40;100960.91;;;23.86;67.53
40612;BME280;26317;44.894;20.286;2023-09-18T07:35:20;100955.63;;;23.93;66.97
40612;BME280;26317;44.894;20.286;2023-09-18T07:37:57;100954.22;;;23.99;66.11
40612;BME280;26317;44.894;20.286;2023-09-18T07:40:42;100945.13;;;23.95;66.78
40612;BME280;26317;44.894;20.286;2023-09-18T07:43:17;100945.84;;;24.07;65.92
40612;BME280;26317;44.894;20.286;2023-09-18T07:45:53;100951.50;;;24.14;65.64
40612;BME280;26317;44.894;20.286;2023-09-18T07:48:30;100920.81;;;24.09;65.41
40612;BME280;26317;44.894;20.286;2023-09-18T07:51:10;100949.59;;;24.31;65.52
40612;BME280;26317;44.894;20.286;2023-09-18T07:53:43;100950.50;;;24.35;64.50
40612;BME280;26317;44.894;20.286;2023-09-18T07:56:18;100939.81;;;24.45;64.66
40612;BME280;26317;44.894;20.286;2023-09-18T07:58:59;100943.34;;;24.46;64.24
40612;BME280;26317;44.894;20.286;2023-09-18T08:01:37;100939.09;;;24.48;64.41
40612;BME280;26317;44.894;20.286;2023-09-18T08:04:21;100936.97;;;24.57;64.08
40612;BME280;26317;44.894;20.286;2023-09-18T08:06:59;100934.03;;;24.66;63.27
40612;BME280;26317;44.894;20.286;2023-09-18T08:09:36;100927.50;;;24.70;63.54
40612;BME280;26317;44.894;20.286;2023-09-18T08:12:16;100934.28;;;24.77;63.04
40612;BME280;26317;44.894;20.286;2023-09-18T08:14:48;100932.63;;;24.88;62.69
40612;BME280;26317;44.894;20.286;2023-09-18T08:17:30;100933.59;;;24.95;62.61
40612;BME280;26317;44.894;20.286;2023-09-18T08:20:12;100924.69;;;25.02;62.33
40612;BME280;26317;44.894;20.286;2023-09-18T08:22:50;100935.22;;;25.15;61.89
40612;BME280;26317;44.894;20.286;2023-09-18T08:25:25;100922.16;;;25.28;61.08
40612;BME280;26317;44.894;20.286;2023-09-18T08:28:05;100925.41;;;25.34;61.33
40612;BME280;26317;44.894;20.286;2023-09-18T08:30:50;100914.28;;;25.46;59.89
40612;BME280;26317;44.894;20.286;2023-09-18T08:33:26;100920.63;;;25.50;59.59
40612;BME280;26317;44.894;20.286;2023-09-18T08:36:11;100930.19;;;25.56;59.15
40612;BME280;26317;44.894;20.286;2023-09-18T08:38:51;100928.81;;;25.66;58.32
40612;BME280;26317;44.894;20.286;2023-09-18T08:41:29;100925.78;;;25.71;57.80
40612;BME280;26317;44.894;20.286;2023-09-18T08:44:07;100922.31;;;25.74;57.79
40612;BME280;26317;44.894;20.286;2023-09-18T08:46:44;100920.41;;;25.78;57.86
40612;BME280;26317;44.894;20.286;2023-09-18T08:49:24;100918.53;;;25.82;58.07
40612;BME280;26317;44.894;20.286;2023-09-18T08:52:13;100920.25;;;25.90;57.58
40612;BME280;26317;44.894;20.286;2023-09-18T08:54:54;100909.38;;;25.97;56.76
40612;BME280;26317;44.894;20.286;2023-09-18T08:57:44;100918.47;;;26.01;56.29
40612;BME280;26317;44.894;20.286;2023-09-18T09:00:31;100909.53;;;26.04;56.50
40612;BME280;26317;44.894;20.286;2023-09-18T09:03:12;100911.59;;;26.10;56.17
40612;BME280;26317;44.894;20.286;2023-09-18T09:05:56;100901.88;;;26.17;56.60
40612;BME280;26317;44.894;20.286;2023-09-18T09:08:44;100905.94;;;26.23;56.29
40612;BME280;26317;44.894;20.286;2023-09-18T09:11:16;100894.34;;;26.33;55.50
40612;BME280;26317;44.894;20.286;2023-09-18T09:14:10;100892.78;;;26.35;55.16
40612;BME280;26317;44.894;20.286;2023-09-18T09:16:57;100883.81;;;26.38;55.46
40612;BME280;26317;44.894;20.286;2023-09-18T09:19:36;100874.94;;;26.48;55.71
40612;BME280;26317;44.894;20.286;2023-09-18T09:22:20;100879.38;;;26.57;54.46
40612;BME280;26317;44.894;20.286;2023-09-18T09:25:23;100882.66;;;26.66;54.54
40612;BME280;26317;44.894;20.286;2023-09-18T09:28:11;100876.00;;;26.67;55.09
40612;BME280;26317;44.894;20.286;2023-09-18T09:30:53;100869.00;;;26.73;54.59
40612;BME280;26317;44.894;20.286;2023-09-18T09:33:40;100862.94;;;26.86;54.07
40612;BME280;26317;44.894;20.286;2023-09-18T09:36:23;100850.38;;;26.89;53.49
40612;BME280;26317;44.894;20.286;2023-09-18T09:39:10;100852.03;;;26.97;52.86
40612;BME280;26317;44.894;20.286;2023-09-18T09:41:49;100861.56;;;27.03;52.66
40612;BME280;26317;44.894;20.286;2023-09-18T10:55:04;100818.00;;;28.95;47.34
40612;BME280;26317;44.894;20.286;2023-09-18T10:57:55;100810.50;;;28.92;47.13
40612;BME280;26317;44.894;20.286;2023-09-18T11:00:32;100802.59;;;28.94;48.15
40612;BME280;26317;44.894;20.286;2023-09-18T11:03:13;100797.88;;;28.98;48.12
40612;BME280;26317;44.894;20.286;2023-09-18T11:06:11;100790.41;;;29.06;47.64
40612;BME280;26317;44.894;20.286;2023-09-18T11:08:50;100792.81;;;29.14;47.37
40612;BME280;26317;44.894;20.286;2023-09-18T11:11:36;100793.25;;;29.23;46.29
40612;BME280;26317;44.894;20.286;2023-09-18T11:14:12;100798.03;;;29.30;47.04
40612;BME280;26317;44.894;20.286;2023-09-18T11:16:57;100788.97;;;29.40;45.17
40612;BME280;26317;44.894;20.286;2023-09-18T11:19:45;100779.50;;;29.45;45.17
40612;BME280;26317;44.894;20.286;2023-09-18T11:22:17;100770.81;;;29.46;45.69
40612;BME280;26317;44.894;20.286;2023-09-18T11:28:25;100777.53;;;29.74;45.18
40612;BME280;26317;44.894;20.286;2023-09-18T11:31:03;100770.03;;;29.81;43.53
40612;BME280;26317;44.894;20.286;2023-09-18T11:33:38;100762.94;;;29.84;42.85
40612;BME280;26317;44.894;20.286;2023-09-18T11:36:30;100757.00;;;29.85;42.46
40612;BME280;26317;44.894;20.286;2023-09-18T11:39:11;100773.22;;;29.90;43.15
40612;BME280;26317;44.894;20.286;2023-09-18T11:41:45;100772.03;;;29.91;43.14
40612;BME280;26317;44.894;20.286;2023-09-18T11:44:39;100774.44;;;29.93;43.39
40612;BME280;26317;44.894;20.286;2023-09-18T11:47:24;100776.00;;;30.04;42.63
40612;BME280;26317;44.894;20.286;2023-09-18T11:50:17;100764.13;;;30.07;43.25
40612;BME280;26317;44.894;20.286;2023-09-18T11:52:55;100761.72;;;30.20;42.42
40612;BME280;26317;44.894;20.286;2023-09-18T11:55:34;100752.25;;;30.25;41.68
40612;BME280;26317;44.894;20.286;2023-09-18T11:58:16;100745.13;;;30.24;41.96
40612;BME280;26317;44.894;20.286;2023-09-18T12:00:57;100734.03;;;30.24;41.33
40612;BME280;26317;44.894;20.286;2023-09-18T12:03:44;100731.25;;;30.38;40.99
40612;BME280;26317;44.894;20.286;2023-09-18T12:06:23;100725.69;;;30.41;41.03
40612;BME280;26317;44.894;20.286;2023-09-18T12:08:56;100723.72;;;30.49;40.58
40612;BME280;26317;44.894;20.286;2023-09-18T12:11:44;100723.69;;;30.56;39.31
40612;BME280;26317;44.894;20.286;2023-09-18T12:14:26;100715.78;;;30.58;40.42
40612;BME280;26317;44.894;20.286;2023-09-18T12:17:18;100727.66;;;30.58;38.99
40612;BME280;26317;44.894;20.286;2023-09-18T12:20:01;100728.41;;;30.63;39.87
40612;BME280;26317;44.894;20.286;2023-09-18T12:22:50;100722.84;;;30.66;38.50
40612;BME280;26317;44.894;20.286;2023-09-18T12:25:31;100716.91;;;30.71;38.13
40612;BME280;26317;44.894;20.286;2023-09-18T12:28:06;100723.59;;;30.77;39.13
40612;BME280;26317;44.894;20.286;2023-09-18T12:30:55;100723.97;;;30.83;39.09
40612;BME280;26317;44.894;20.286;2023-09-18T12:33:51;100717.97;;;30.91;38.91
40612;BME280;26317;44.894;20.286;2023-09-18T12:36:35;100707.31;;;30.93;37.32
40612;BME280;26317;44.894;20.286;2023-09-18T12:39:12;100721.13;;;31.00;36.37
40612;BME280;26317;44.894;20.286;2023-09-18T12:41:46;100712.41;;;31.02;36.86
40612;BME280;26317;44.894;20.286;2023-09-18T12:44:32;100712.41;;;31.06;37.22
40612;BME280;26317;44.894;20.286;2023-09-18T12:47:09;100714.38;;;31.05;37.26
40612;BME280;26317;44.894;20.286;2023-09-18T12:49:49;100716.31;;;31.12;37.34
40612;BME280;26317;44.894;20.286;2023-09-18T12:52:22;100721.00;;;31.22;36.85
40612;BME280;26317;44.894;20.286;2023-09-18T12:55:02;100699.63;;;31.19;36.89
40612;BME280;26317;44.894;20.286;2023-09-18T12:57:39;100713.78;;;31.31;37.23
40612;BME280;26317;44.894;20.286;2023-09-18T13:00:25;100697.47;;;31.40;37.22
40612;BME280;26317;44.894;20.286;2023-09-18T13:03:05;100701.00;;;31.44;37.03
40612;BME280;26317;44.894;20.286;2023-09-18T13:05:52;100697.41;;;31.51;37.01
40612;BME280;26317;44.894;20.286;2023-09-18T13:08:32;100690.63;;;31.59;36.49
40612;BME280;26317;44.894;20.286;2023-09-18T13:11:06;100687.84;;;31.59;37.04
40612;BME280;26317;44.894;20.286;2023-09-18T13:13:59;100694.53;;;31.65;36.79
40612;BME280;26317;44.894;20.286;2023-09-18T13:16:38;100693.72;;;31.65;36.59
40612;BME280;26317;44.894;20.286;2023-09-18T13:19:21;100692.91;;;31.71;35.93
40612;BME280;26317;44.894;20.286;2023-09-18T13:22:01;100697.63;;;31.74;35.81
40612;BME280;26317;44.894;20.286;2023-09-18T13:24:38;100672.28;;;31.69;35.36
40612;BME280;26317;44.894;20.286;2023-09-18T13:27:11;100685.28;;;31.79;35.45
40612;BME280;26317;44.894;20.286;2023-09-18T13:29:54;100672.22;;;31.79;35.69
40612;BME280;26317;44.894;20.286;2023-09-18T13:32:30;100661.13;;;31.79;36.19
40612;BME280;26317;44.894;20.286;2023-09-18T13:35:03;100668.16;;;31.87;35.95
40612;BME280;26317;44.894;20.286;2023-09-18T13:37:46;100675.34;;;31.85;35.61
40612;BME280;26317;44.894;20.286;2023-09-18T13:40:19;100669.78;;;31.81;35.53
40612;BME280;26317;44.894;20.286;2023-09-18T13:42:59;100668.75;;;31.68;35.73
40612;BME280;26317;44.894;20.286;2023-09-18T13:45:37;100653.78;;;31.59;36.34
40612;BME280;26317;44.894;20.286;2023-09-18T13:48:15;100657.88;;;31.43;36.00
40612;BME280;26317;44.894;20.286;2023-09-18T13:51:00;100653.59;;;31.32;36.43
40612;BME280;26317;44.894;20.286;2023-09-18T13:53:53;100653.25;;;31.26;35.58
40612;BME280;26317;44.894;20.286;2023-09-18T13:56:33;100649.72;;;31.19;36.83
40612;BME280;26317;44.894;20.286;2023-09-18T13:59:09;100647.78;;;31.16;36.05
40612;BME280;26317;44.894;20.286;2023-09-18T14:01:48;100645.00;;;31.16;35.97
40612;BME280;26317;44.894;20.286;2023-09-18T14:04:27;100655.38;;;31.08;35.83
40612;BME280;26317;44.894;20.286;2023-09-18T14:06:59;100644.31;;;31.04;36.19
40612;BME280;26317;44.894;20.286;2023-09-18T14:09:53;100634.81;;;30.98;36.19
40612;BME280;26317;44.894;20.286;2023-09-18T14:12:33;100636.03;;;30.97;36.79
40612;BME280;26317;44.894;20.286;2023-09-18T14:15:13;100641.97;;;30.96;36.53
40612;BME280;26317;44.894;20.286;2023-09-18T14:17:48;100649.97;;;30.83;36.14
40612;BME280;26317;44.894;20.286;2023-09-18T14:20:24;100644.84;;;30.78;36.93
40612;BME280;26317;44.894;20.286;2023-09-18T14:23:01;100644.06;;;30.74;36.16
40612;BME280;26317;44.894;20.286;2023-09-18T14:25:47;100637.81;;;30.63;36.59
40612;BME280;26317;44.894;20.286;2023-09-18T14:28:24;100651.28;;;30.61;36.67
40612;BME280;26317;44.894;20.286;2023-09-18T14:31:05;100639.84;;;30.52;37.23
40612;BME280;26317;44.894;20.286;2023-09-18T14:33:43;100637.50;;;30.43;37.96
40612;BME280;26317;44.894;20.286;2023-09-18T14:36:15;100639.91;;;30.38;37.81
40612;BME280;26317;44.894;20.286;2023-09-18T14:38:45;100650.59;;;30.32;37.61
40612;BME280;26317;44.894;20.286;2023-09-18T14:41:23;100643.13;;;30.22;38.12
40612;BME280;26317;44.894;20.286;2023-09-18T14:43:58;100648.69;;;30.15;37.98
40612;BME280;26317;44.894;20.286;2023-09-18T14:46:31;100648.69;;;30.11;37.75
40612;BME280;26317;44.894;20.286;2023-09-18T14:49:16;100646.34;;;30.03;38.52
40612;BME280;26317;44.894;20.286;2023-09-18T14:51:54;100637.66;;;29.94;38.67
40612;BME280;26317;44.894;20.286;2023-09-18T14:54:30;100651.50;;;29.90;39.30
40612;BME280;26317;44.894;20.286;2023-09-18T14:57:19;100655.88;;;29.84;41.56
40612;BME280;26317;44.894;20.286;2023-09-18T14:59:57;100664.16;;;29.84;43.13
40612;BME280;26317;44.894;20.286;2023-09-18T15:02:38;100657.44;;;29.78;43.91